createdAt,value
2023-04-10T00:00:35.094Z,18.48
2023-04-10T00:01:35.111Z,18.48
2023-04-10T00:02:35.189Z,18.47
2023-04-10T00:03:35.138Z,18.48
2023-04-10T00:04:35.726Z,18.47
2023-04-10T00:05:35.111Z,18.47
2023-04-10T00:06:35.137Z,18.47
2023-04-10T00:07:35.202Z,18.47
2023-04-10T00:08:35.150Z,18.46
2023-04-10T00:09:35.157Z,18.46
2023-04-10T00:10:35.201Z,18.46
2023-04-10T00:11:35.183Z,18.46
2023-04-10T00:12:35.205Z,18.46
2023-04-10T00:13:35.210Z,18.45
2023-04-10T00:14:35.223Z,18.46
2023-04-10T00:15:35.248Z,18.46
2023-04-10T00:16:35.284Z,18.46
2023-04-10T00:17:35.299Z,18.45
2023-04-10T00:18:36.115Z,18.45
2023-04-10T00:19:35.283Z,18.45
2023-04-10T00:20:35.325Z,18.45
2023-04-10T00:21:35.611Z,18.44
2023-04-10T00:22:35.330Z,18.45
2023-04-10T00:23:35.334Z,18.45
2023-04-10T00:24:35.363Z,18.44
2023-04-10T00:25:35.370Z,18.44
2023-04-10T00:26:35.389Z,18.44
2023-04-10T00:27:35.438Z,18.44
2023-04-10T00:28:35.376Z,18.44
2023-04-10T00:29:35.416Z,18.43
2023-04-10T00:30:35.418Z,18.44
2023-04-10T00:31:35.553Z,18.44
2023-04-10T00:32:35.462Z,18.44
2023-04-10T00:33:35.466Z,18.43
2023-04-10T00:34:35.470Z,18.43
2023-04-10T00:35:35.509Z,18.44
2023-04-10T00:36:35.493Z,18.43
2023-04-10T00:37:35.514Z,18.44
2023-04-10T00:38:35.521Z,18.43
2023-04-10T00:39:35.542Z,18.43
2023-04-10T00:40:35.545Z,18.42
2023-04-10T00:41:35.580Z,18.42
2023-04-10T00:42:36.122Z,18.43
2023-04-10T00:43:35.575Z,18.42
2023-04-10T00:44:35.598Z,18.42
2023-04-10T00:45:35.657Z,18.42
2023-04-10T00:46:35.676Z,18.41
2023-04-10T00:47:35.646Z,18.40
2023-04-10T00:48:36.123Z,18.40
2023-04-10T00:49:35.648Z,18.40
2023-04-10T00:50:35.657Z,18.40
2023-04-10T00:51:35.683Z,18.40
2023-04-10T00:52:35.686Z,18.39
2023-04-10T00:53:35.704Z,18.40
2023-04-10T00:54:35.703Z,18.39
2023-04-10T00:55:35.723Z,18.39
2023-04-10T00:56:35.722Z,18.39
2023-04-10T00:57:35.740Z,18.38
2023-04-10T00:58:35.751Z,18.39
2023-04-10T00:59:35.754Z,18.38
2023-04-10T01:00:35.770Z,18.38
2023-04-10T01:01:36.715Z,18.38
2023-04-10T01:02:35.984Z,18.38
2023-04-10T01:03:36.055Z,18.38
2023-04-10T01:04:36.000Z,18.38
2023-04-10T01:05:35.934Z,18.38
2023-04-10T01:06:35.971Z,18.37
2023-04-10T01:07:36.008Z,18.37
2023-04-10T01:08:36.051Z,18.37
2023-04-10T01:09:36.083Z,18.37
2023-04-10T01:10:36.127Z,18.37
2023-04-10T01:11:36.634Z,18.36
2023-04-10T01:12:36.182Z,18.37
2023-04-10T01:13:36.228Z,18.36
2023-04-10T01:14:36.248Z,18.36
2023-04-10T01:15:36.288Z,18.35
2023-04-10T01:16:36.348Z,18.35
2023-04-10T01:17:36.465Z,18.35
2023-04-10T01:18:36.409Z,18.35
2023-04-10T01:19:36.443Z,18.35
2023-04-10T01:20:36.477Z,18.35
2023-04-10T01:21:36.525Z,18.35
2023-04-10T01:22:36.561Z,18.34
2023-04-10T01:23:36.626Z,18.35
2023-04-10T01:24:36.642Z,18.35
2023-04-10T01:25:36.686Z,18.35
2023-04-10T01:26:36.727Z,18.35
2023-04-10T01:27:37.633Z,18.35
2023-04-10T01:28:36.805Z,18.35
2023-04-10T01:29:36.854Z,18.34
2023-04-10T01:30:36.949Z,18.34
2023-04-10T01:31:36.932Z,18.35
2023-04-10T01:32:36.995Z,18.34
2023-04-10T01:33:37.020Z,18.33
2023-04-10T01:34:37.072Z,18.33
2023-04-10T01:35:37.130Z,18.32
2023-04-10T01:36:37.164Z,18.33
2023-04-10T01:37:37.157Z,18.33
2023-04-10T01:38:37.201Z,18.32
2023-04-10T01:39:37.246Z,18.32
2023-04-10T01:40:37.295Z,18.32
2023-04-10T01:41:37.333Z,18.32
2023-04-10T01:42:37.372Z,18.31
2023-04-10T01:43:37.470Z,18.31
2023-04-10T01:44:37.475Z,18.31
2023-04-10T01:45:37.523Z,18.31
2023-04-10T01:46:37.621Z,18.30
2023-04-10T01:47:37.597Z,18.31
2023-04-10T01:48:37.650Z,18.30
2023-04-10T01:49:37.759Z,18.30
2023-04-10T01:50:37.725Z,18.30
2023-04-10T01:51:37.773Z,18.30
2023-04-10T01:52:37.823Z,18.29
2023-04-10T01:53:37.860Z,18.28
2023-04-10T01:54:37.903Z,18.28
2023-04-10T01:55:37.945Z,18.28
2023-04-10T01:56:37.979Z,18.27
2023-04-10T01:57:38.026Z,18.28
2023-04-10T01:58:38.073Z,18.27
2023-04-10T01:59:38.124Z,18.27
2023-04-10T02:00:38.187Z,18.27
2023-04-10T02:01:38.326Z,18.27
2023-04-10T02:02:38.663Z,18.27
2023-04-10T02:03:38.566Z,18.26
2023-04-10T02:04:38.433Z,18.26
2023-04-10T02:05:38.397Z,18.26
2023-04-10T02:06:38.441Z,18.26
2023-04-10T02:07:38.485Z,18.25
2023-04-10T02:08:38.534Z,18.26
2023-04-10T02:09:38.580Z,18.26
2023-04-10T02:10:38.625Z,18.25
2023-04-10T02:11:38.665Z,18.26
2023-04-10T02:12:38.703Z,18.24
2023-04-10T02:13:38.753Z,18.24
2023-04-10T02:14:38.797Z,18.24
2023-04-10T02:15:38.881Z,18.24
2023-04-10T02:16:38.896Z,18.24
2023-04-10T02:17:38.949Z,18.23
2023-04-10T02:18:38.978Z,18.24
2023-04-10T02:19:39.053Z,18.23
2023-04-10T02:20:39.655Z,18.22
2023-04-10T02:21:39.118Z,18.22
2023-04-10T02:22:39.168Z,18.23
2023-04-10T02:23:39.217Z,18.22
2023-04-10T02:24:39.284Z,18.22
2023-04-10T02:25:39.313Z,18.22
2023-04-10T02:26:39.366Z,18.21
2023-04-10T02:27:39.491Z,18.21
2023-04-10T02:28:39.462Z,18.21
2023-04-10T02:29:39.510Z,18.22
2023-04-10T02:30:39.562Z,18.22
2023-04-10T02:31:39.648Z,18.21
2023-04-10T02:32:39.727Z,18.21
2023-04-10T02:33:39.756Z,18.21
2023-04-10T02:34:39.754Z,18.20
2023-04-10T02:35:39.843Z,18.20
2023-04-10T02:36:39.853Z,18.20
2023-04-10T02:37:39.910Z,18.20
2023-04-10T02:38:39.963Z,18.20
2023-04-10T02:39:40.087Z,18.20
2023-04-10T02:40:40.055Z,18.19
2023-04-10T02:41:40.085Z,18.19
2023-04-10T02:42:40.250Z,18.19
2023-04-10T02:43:40.189Z,18.18
2023-04-10T02:44:40.248Z,18.18
2023-04-10T02:45:40.317Z,18.18
2023-04-10T02:46:40.396Z,18.17
2023-04-10T02:47:40.462Z,18.17
2023-04-10T02:48:40.464Z,18.17
2023-04-10T02:49:40.524Z,18.17
2023-04-10T02:50:40.573Z,18.17
2023-04-10T02:51:40.647Z,18.16
2023-04-10T02:52:40.697Z,18.16
2023-04-10T02:53:40.749Z,18.16
2023-04-10T02:54:40.804Z,18.16
2023-04-10T02:55:40.858Z,18.15
2023-04-10T02:56:40.909Z,18.15
2023-04-10T02:57:41.666Z,18.15
2023-04-10T02:58:41.008Z,18.15
2023-04-10T02:59:41.053Z,18.15
2023-04-10T03:00:41.097Z,18.14
2023-04-10T03:01:41.221Z,18.15
2023-04-10T03:02:41.264Z,18.14
2023-04-10T03:03:41.332Z,18.14
2023-04-10T03:04:41.361Z,18.14
2023-04-10T03:05:41.368Z,18.14
2023-04-10T03:06:41.416Z,18.12
2023-04-10T03:07:41.484Z,18.13
2023-04-10T03:08:41.532Z,18.12
2023-04-10T03:09:41.581Z,18.12
2023-04-10T03:10:41.625Z,18.12
2023-04-10T03:11:41.744Z,18.11
2023-04-10T03:12:41.734Z,18.12
2023-04-10T03:13:41.791Z,18.12
2023-04-10T03:14:41.856Z,18.11
2023-04-10T03:15:41.978Z,18.12
2023-04-10T03:16:42.002Z,18.12
2023-04-10T03:17:42.044Z,18.11
2023-04-10T03:18:42.069Z,18.11
2023-04-10T03:19:42.114Z,18.10
2023-04-10T03:20:44.485Z,18.11
2023-04-10T03:21:42.231Z,18.10
2023-04-10T03:22:42.233Z,18.10
2023-04-10T03:23:42.196Z,18.10
2023-04-10T03:24:42.209Z,18.09
2023-04-10T03:25:42.259Z,18.10
2023-04-10T03:26:42.223Z,18.09
2023-04-10T03:27:42.222Z,18.09
2023-04-10T03:28:42.228Z,18.09
2023-04-10T03:29:42.310Z,18.09
2023-04-10T03:30:42.245Z,18.09
2023-04-10T03:31:42.309Z,18.09
2023-04-10T03:32:42.355Z,18.09
2023-04-10T03:33:42.314Z,18.08
2023-04-10T03:34:42.289Z,18.08
2023-04-10T03:35:42.333Z,18.08
2023-04-10T03:36:42.312Z,18.08
2023-04-10T03:37:42.323Z,18.07
2023-04-10T03:38:43.179Z,18.07
2023-04-10T03:39:42.341Z,18.07
2023-04-10T03:40:42.355Z,18.07
2023-04-10T03:41:42.691Z,18.07
2023-04-10T03:42:43.266Z,18.06
2023-04-10T03:43:42.398Z,18.05
2023-04-10T03:44:42.407Z,18.05
2023-04-10T03:45:42.416Z,18.06
2023-04-10T03:46:42.436Z,18.06
2023-04-10T03:47:42.511Z,18.05
2023-04-10T03:48:42.465Z,18.04
2023-04-10T03:49:42.473Z,18.04
2023-04-10T03:50:42.491Z,18.04
2023-04-10T03:51:42.504Z,18.04
2023-04-10T03:52:42.518Z,18.04
2023-04-10T03:53:42.538Z,18.03
2023-04-10T03:54:42.542Z,18.03
2023-04-10T03:55:42.692Z,18.03
2023-04-10T03:56:42.588Z,18.03
2023-04-10T03:57:42.662Z,18.02
2023-04-10T03:58:42.623Z,18.02
2023-04-10T03:59:42.638Z,18.01
2023-04-10T04:00:42.668Z,18.00
2023-04-10T04:01:42.728Z,18.00
2023-04-10T04:02:42.819Z,18.00
2023-04-10T04:03:42.859Z,18.01
2023-04-10T04:04:42.774Z,18.00
2023-04-10T04:05:42.710Z,18.00
2023-04-10T04:06:42.744Z,18.00
2023-04-10T04:07:42.744Z,18.00
2023-04-10T04:08:42.756Z,17.99
2023-04-10T04:09:42.765Z,17.98
2023-04-10T04:10:42.773Z,17.99
2023-04-10T04:11:42.795Z,17.99
2023-04-10T04:12:42.865Z,17.99
2023-04-10T04:13:42.875Z,17.99
2023-04-10T04:14:42.930Z,17.98
2023-04-10T04:15:42.990Z,17.99
2023-04-10T04:16:43.141Z,17.98
2023-04-10T04:17:43.157Z,17.98
2023-04-10T04:18:43.184Z,17.97
2023-04-10T04:19:43.252Z,17.97
2023-04-10T04:20:43.329Z,17.97
2023-04-10T04:21:43.473Z,17.97
2023-04-10T04:22:43.467Z,17.97
2023-04-10T04:23:43.524Z,17.96
2023-04-10T04:24:43.591Z,17.96
2023-04-10T04:25:43.662Z,17.96
2023-04-10T04:26:43.733Z,17.96
2023-04-10T04:27:43.785Z,17.96
2023-04-10T04:28:43.864Z,17.95
2023-04-10T04:29:44.699Z,17.96
2023-04-10T04:30:43.999Z,17.95
2023-04-10T04:31:44.110Z,17.94
2023-04-10T04:32:44.188Z,17.95
2023-04-10T04:33:44.194Z,17.94
2023-04-10T04:34:44.266Z,17.94
2023-04-10T04:35:44.357Z,17.93
2023-04-10T04:36:44.398Z,17.94
2023-04-10T04:37:44.451Z,17.93
2023-04-10T04:38:44.526Z,17.94
2023-04-10T04:39:44.605Z,17.93
2023-04-10T04:40:44.670Z,17.93
2023-04-10T04:41:44.724Z,17.92
2023-04-10T04:42:44.790Z,17.92
2023-04-10T04:43:44.846Z,17.91
2023-04-10T04:44:44.917Z,17.91
2023-04-10T04:45:44.994Z,17.91
2023-04-10T04:46:45.048Z,17.91
2023-04-10T04:47:45.188Z,17.90
2023-04-10T04:48:45.188Z,17.90
2023-04-10T04:49:45.286Z,17.90
2023-04-10T04:50:45.310Z,17.91
2023-04-10T04:51:45.389Z,17.91
2023-04-10T04:52:45.457Z,17.90
2023-04-10T04:53:45.533Z,17.90
2023-04-10T04:54:45.600Z,17.89
2023-04-10T04:55:45.669Z,17.89
2023-04-10T04:56:45.755Z,17.88
2023-04-10T04:57:45.806Z,17.88
2023-04-10T04:58:45.871Z,17.89
2023-04-10T04:59:45.943Z,17.88
2023-04-10T05:00:46.015Z,17.88
2023-04-10T05:01:46.152Z,17.88
2023-04-10T05:02:46.237Z,17.87
2023-04-10T05:03:46.322Z,17.88
2023-04-10T05:04:47.217Z,17.87
2023-04-10T05:05:46.336Z,17.87
2023-04-10T05:06:46.402Z,17.87
2023-04-10T05:07:46.476Z,17.87
2023-04-10T05:08:47.215Z,17.86
2023-04-10T05:09:46.612Z,17.87
2023-04-10T05:10:46.691Z,17.86
2023-04-10T05:11:46.786Z,17.86
2023-04-10T05:12:46.817Z,17.86
2023-04-10T05:13:47.731Z,17.86
2023-04-10T05:14:46.966Z,17.87
2023-04-10T05:15:47.067Z,17.86
2023-04-10T05:16:47.111Z,17.86
2023-04-10T05:17:47.274Z,17.86
2023-04-10T05:18:47.341Z,17.85
2023-04-10T05:19:47.324Z,17.86
2023-04-10T05:20:47.504Z,17.85
2023-04-10T05:21:47.466Z,17.84
2023-04-10T05:22:47.538Z,17.84
2023-04-10T05:23:47.667Z,17.84
2023-04-10T05:24:47.683Z,17.84
2023-04-10T05:25:47.743Z,17.84
2023-04-10T05:26:47.808Z,17.84
2023-04-10T05:27:47.878Z,17.83
2023-04-10T05:28:47.945Z,17.83
2023-04-10T05:29:48.236Z,17.83
2023-04-10T05:30:48.133Z,17.83
2023-04-10T05:31:48.158Z,17.83
2023-04-10T05:32:48.256Z,17.82
2023-04-10T05:33:48.349Z,17.82
2023-04-10T05:34:48.362Z,17.82
2023-04-10T05:35:48.472Z,17.82
2023-04-10T05:36:48.575Z,17.81
2023-04-10T05:37:48.563Z,17.82
2023-04-10T05:38:48.630Z,17.81
2023-04-10T05:39:48.723Z,17.81
2023-04-10T05:40:48.800Z,17.81
2023-04-10T05:41:48.859Z,17.82
2023-04-10T05:42:48.910Z,17.81
2023-04-10T05:43:48.983Z,17.80
2023-04-10T05:44:49.057Z,17.79
2023-04-10T05:45:49.139Z,17.79
2023-04-10T05:46:49.347Z,17.79
2023-04-10T05:47:49.270Z,17.80
2023-04-10T05:48:49.354Z,17.80
2023-04-10T05:49:49.497Z,17.80
2023-04-10T05:50:49.467Z,17.79
2023-04-10T05:51:49.595Z,17.79
2023-04-10T05:52:49.626Z,17.79
2023-04-10T05:53:49.686Z,17.79
2023-04-10T05:54:49.753Z,17.79
2023-04-10T05:55:49.890Z,17.78
2023-04-10T05:56:49.898Z,17.78
2023-04-10T05:57:49.962Z,17.77
2023-04-10T05:58:50.034Z,17.78
2023-04-10T05:59:50.159Z,17.77
2023-04-10T06:00:50.180Z,17.77
2023-04-10T06:01:50.298Z,17.77
2023-04-10T06:02:50.370Z,17.78
2023-04-10T06:03:50.546Z,17.77
2023-04-10T06:04:50.507Z,17.78
2023-04-10T06:05:50.543Z,17.78
2023-04-10T06:06:50.606Z,17.78
2023-04-10T06:07:50.675Z,17.77
2023-04-10T06:08:50.744Z,17.77
2023-04-10T06:09:50.813Z,17.76
2023-04-10T06:10:50.884Z,17.76
2023-04-10T06:11:50.956Z,17.76
2023-04-10T06:12:51.024Z,17.76
2023-04-10T06:13:51.107Z,17.76
2023-04-10T06:14:51.252Z,17.76
2023-04-10T06:15:51.283Z,17.76
2023-04-10T06:16:51.339Z,17.76
2023-04-10T06:17:51.406Z,17.75
2023-04-10T06:18:51.488Z,17.75
2023-04-10T06:19:51.534Z,17.75
2023-04-10T06:20:51.611Z,17.75
2023-04-10T06:21:53.935Z,17.74
2023-04-10T06:22:51.706Z,17.74
2023-04-10T06:23:51.850Z,17.75
2023-04-10T06:24:51.744Z,17.74
2023-04-10T06:25:51.829Z,17.74
2023-04-10T06:26:51.782Z,17.74
2023-04-10T06:27:51.788Z,17.74
2023-04-10T06:28:51.990Z,17.74
2023-04-10T06:29:51.831Z,17.73
2023-04-10T06:30:51.853Z,17.74
2023-04-10T06:31:52.024Z,17.76
2023-04-10T06:32:51.938Z,17.75
2023-04-10T06:33:51.926Z,17.75
2023-04-10T06:34:51.926Z,17.76
2023-04-10T06:35:51.971Z,17.76
2023-04-10T06:36:51.978Z,17.76
2023-04-10T06:37:51.999Z,17.76
2023-04-10T06:38:52.339Z,17.76
2023-04-10T06:39:52.062Z,17.76
2023-04-10T06:40:52.073Z,17.76
2023-04-10T06:41:52.096Z,17.77
2023-04-10T06:42:52.105Z,17.77
2023-04-10T06:43:52.129Z,17.77
2023-04-10T06:44:52.147Z,17.77
2023-04-10T06:45:52.174Z,17.76
2023-04-10T06:46:52.784Z,17.76
2023-04-10T06:47:52.267Z,17.77
2023-04-10T06:48:52.385Z,17.77
2023-04-10T06:49:52.258Z,17.77
2023-04-10T06:50:52.271Z,17.77
2023-04-10T06:51:52.296Z,17.76
2023-04-10T06:52:52.320Z,17.78
2023-04-10T06:53:52.352Z,17.77
2023-04-10T06:54:52.432Z,17.78
2023-04-10T06:55:52.392Z,17.77
2023-04-10T06:56:52.413Z,17.78
2023-04-10T06:57:52.432Z,17.77
2023-04-10T06:58:52.627Z,17.77
2023-04-10T06:59:52.473Z,17.77
2023-04-10T07:00:52.519Z,17.77
2023-04-10T07:01:52.553Z,17.78
2023-04-10T07:02:52.563Z,17.78
2023-04-10T07:03:52.580Z,17.77
2023-04-10T07:04:52.633Z,17.78
2023-04-10T07:05:52.713Z,17.77
2023-04-10T07:06:52.809Z,17.77
2023-04-10T07:07:53.317Z,17.77
2023-04-10T07:08:53.055Z,17.77
2023-04-10T07:09:53.022Z,17.77
2023-04-10T07:10:53.108Z,17.78
2023-04-10T07:11:53.175Z,17.77
2023-04-10T07:12:53.250Z,17.77
2023-04-10T07:13:53.874Z,17.78
2023-04-10T07:14:53.421Z,17.78
2023-04-10T07:15:53.517Z,17.79
2023-04-10T07:16:53.551Z,17.78
2023-04-10T07:17:53.641Z,17.78
2023-04-10T07:18:54.001Z,17.77
2023-04-10T07:19:53.803Z,17.77
2023-04-10T07:20:54.775Z,17.77
2023-04-10T07:21:53.905Z,17.77
2023-04-10T07:22:53.975Z,17.76
2023-04-10T07:23:54.058Z,17.77
2023-04-10T07:24:54.134Z,17.77
2023-04-10T07:25:54.834Z,17.77
2023-04-10T07:26:54.382Z,17.76
2023-04-10T07:27:54.363Z,17.76
2023-04-10T07:28:54.801Z,17.76
2023-04-10T07:29:54.547Z,17.76
2023-04-10T07:30:54.602Z,17.76
2023-04-10T07:31:54.863Z,17.77
2023-04-10T07:32:54.902Z,17.76
2023-04-10T07:33:54.835Z,17.76
2023-04-10T07:34:54.941Z,17.76
2023-04-10T07:35:55.043Z,17.75
2023-04-10T07:36:55.085Z,17.75
2023-04-10T07:37:55.144Z,17.76
2023-04-10T07:38:55.402Z,17.76
2023-04-10T07:39:55.307Z,17.76
2023-04-10T07:40:55.373Z,17.75
2023-04-10T07:41:55.454Z,17.76
2023-04-10T07:42:56.335Z,17.76
2023-04-10T07:43:55.602Z,17.76
2023-04-10T07:44:55.682Z,17.75
2023-04-10T07:45:55.783Z,17.76
2023-04-10T07:46:55.828Z,17.76
2023-04-10T07:47:55.957Z,17.76
2023-04-10T07:48:56.231Z,17.75
2023-04-10T07:49:56.044Z,17.75
2023-04-10T07:50:56.381Z,17.75
2023-04-10T07:51:56.261Z,17.75
2023-04-10T07:52:56.261Z,17.75
2023-04-10T07:53:56.352Z,17.74
2023-04-10T07:54:56.424Z,17.75
2023-04-10T07:55:56.557Z,17.75
2023-04-10T07:56:56.564Z,17.74
2023-04-10T07:57:56.682Z,17.74
2023-04-10T07:58:56.820Z,17.74
2023-04-10T07:59:56.792Z,17.74
2023-04-10T08:00:56.868Z,17.74
2023-04-10T08:01:57.034Z,17.74
2023-04-10T08:02:57.327Z,17.75
2023-04-10T08:03:57.171Z,17.74
2023-04-10T08:04:57.254Z,17.74
2023-04-10T08:05:57.281Z,17.75
2023-04-10T08:06:57.341Z,17.75
2023-04-10T08:07:57.407Z,17.75
2023-04-10T08:08:57.539Z,17.75
2023-04-10T08:09:57.547Z,17.75
2023-04-10T08:10:57.611Z,17.75
2023-04-10T08:11:57.692Z,17.75
2023-04-10T08:12:57.765Z,17.75
2023-04-10T08:13:57.827Z,17.75
2023-04-10T08:14:57.912Z,17.74
2023-04-10T08:15:57.972Z,17.75
2023-04-10T08:16:58.169Z,17.74
2023-04-10T08:17:58.158Z,17.74
2023-04-10T08:18:58.251Z,17.75
2023-04-10T08:19:58.288Z,17.74
2023-04-10T08:20:58.397Z,17.74
2023-04-10T08:21:58.432Z,17.73
2023-04-10T08:23:03.051Z,17.73
2023-04-10T08:23:59.530Z,17.72
2023-04-10T08:24:58.592Z,17.73
2023-04-10T08:25:58.583Z,17.73
2023-04-10T08:26:58.611Z,17.72
2023-04-10T08:27:58.628Z,17.73
2023-04-10T08:28:58.656Z,17.73
2023-04-10T08:29:58.675Z,17.72
2023-04-10T08:30:58.927Z,17.73
2023-04-10T08:31:58.724Z,17.72
2023-04-10T08:32:58.816Z,17.72
2023-04-10T08:33:59.191Z,17.72
2023-04-10T08:34:58.807Z,17.72
2023-04-10T08:35:58.926Z,17.72
2023-04-10T08:36:58.956Z,17.72
2023-04-10T08:38:12.699Z,17.72
2023-04-10T08:39:00.050Z,17.72
2023-04-10T08:39:59.073Z,17.71
2023-04-10T08:40:59.094Z,17.72
2023-04-10T08:41:59.137Z,17.71
2023-04-10T08:42:59.154Z,17.72
2023-04-10T08:43:59.180Z,17.72
2023-04-10T08:44:59.214Z,17.71
2023-04-10T08:45:59.294Z,17.71
2023-04-10T08:46:59.264Z,17.71
2023-04-10T08:47:59.306Z,17.72
2023-04-10T08:48:59.324Z,17.72
2023-04-10T08:49:59.331Z,17.72
2023-04-10T08:50:59.358Z,17.72
2023-04-10T08:51:59.438Z,17.72
2023-04-10T08:52:59.511Z,17.72
2023-04-10T08:53:59.579Z,17.72
2023-04-10T08:54:59.713Z,17.72
2023-04-10T08:55:59.705Z,17.73
2023-04-10T08:56:59.787Z,17.73
2023-04-10T08:58:01.599Z,17.73
2023-04-10T08:58:59.894Z,17.73
2023-04-10T09:01:00.029Z,17.74
2023-04-10T09:02:00.146Z,17.74
2023-04-10T09:03:00.355Z,17.74
2023-04-10T09:04:00.797Z,17.73
2023-04-10T09:05:00.388Z,17.73
2023-04-10T09:06:00.361Z,17.73
2023-04-10T09:07:00.438Z,17.73
2023-04-10T09:08:00.482Z,17.73
2023-04-10T09:10:00.711Z,17.73
2023-04-10T09:11:00.676Z,17.72
2023-04-10T09:12:01.248Z,17.73
2023-04-10T09:13:00.813Z,17.72
2023-04-10T09:14:00.889Z,17.72
2023-04-10T09:15:01.075Z,17.72
2023-04-10T09:16:01.122Z,17.72
2023-04-10T09:17:01.094Z,17.72
2023-04-10T09:18:01.424Z,17.72
2023-04-10T09:19:01.224Z,17.72
2023-04-10T09:20:01.291Z,17.72
2023-04-10T09:21:01.363Z,17.72
2023-04-10T09:22:01.429Z,17.72
2023-04-10T09:23:01.491Z,17.72
2023-04-10T09:24:01.584Z,17.72
2023-04-10T09:25:01.647Z,17.72
2023-04-10T09:26:01.696Z,17.71
2023-04-10T09:27:01.771Z,17.71
2023-04-10T09:28:01.852Z,17.72
2023-04-10T09:29:01.930Z,17.72
2023-04-10T09:30:02.017Z,17.72
2023-04-10T09:31:02.071Z,17.72
2023-04-10T09:32:02.098Z,17.72
2023-04-10T09:33:03.735Z,17.72
2023-04-10T09:34:02.225Z,17.71
2023-04-10T09:35:02.475Z,17.72
2023-04-10T09:36:02.494Z,17.72
2023-04-10T09:37:02.478Z,17.72
2023-04-10T09:38:02.512Z,17.72
2023-04-10T09:39:02.616Z,17.72
2023-04-10T09:40:02.629Z,17.72
2023-04-10T09:41:02.708Z,17.71
2023-04-10T09:42:02.776Z,17.72
2023-04-10T09:43:02.849Z,17.72
2023-04-10T09:44:02.910Z,17.72
2023-04-10T09:45:02.975Z,17.72
2023-04-10T09:46:03.052Z,17.72
2023-04-10T09:47:03.139Z,17.72
2023-04-10T09:48:03.209Z,17.72
2023-04-10T09:49:03.241Z,17.72
2023-04-10T09:50:03.327Z,17.72
2023-04-10T09:51:03.377Z,17.72
2023-04-10T09:52:03.447Z,17.72
2023-04-10T09:53:03.529Z,17.72
2023-04-10T09:54:03.604Z,17.72
2023-04-10T09:55:03.657Z,17.73
2023-04-10T09:56:03.723Z,17.73
2023-04-10T09:57:03.797Z,17.72
2023-04-10T09:58:03.860Z,17.72
2023-04-10T09:59:03.928Z,17.71
2023-04-10T10:00:04.024Z,17.72
2023-04-10T10:01:04.058Z,17.72
2023-04-10T10:02:04.224Z,17.72
2023-04-10T10:03:04.300Z,17.72
2023-04-10T10:04:04.264Z,17.72
2023-04-10T10:05:04.365Z,17.72
2023-04-10T10:06:04.383Z,17.72
2023-04-10T10:07:04.450Z,17.72
2023-04-10T10:08:04.508Z,17.72
2023-04-10T10:09:04.579Z,17.72
2023-04-10T10:10:04.650Z,17.72
2023-04-10T10:11:04.706Z,17.72
2023-04-10T10:12:04.768Z,17.72
2023-04-10T10:13:04.886Z,17.73
2023-04-10T10:14:04.916Z,17.74
2023-04-10T10:15:04.990Z,17.74
2023-04-10T10:16:05.967Z,17.75
2023-04-10T10:17:05.099Z,17.76
2023-04-10T10:18:05.189Z,17.76
2023-04-10T10:19:05.250Z,17.77
2023-04-10T10:20:05.405Z,17.77
2023-04-10T10:21:05.385Z,17.77
2023-04-10T10:22:05.451Z,17.77
2023-04-10T10:23:05.522Z,17.77
2023-04-10T10:24:05.580Z,17.78
2023-04-10T10:25:05.645Z,17.78
2023-04-10T10:26:05.711Z,17.78
2023-04-10T10:27:05.809Z,17.77
2023-04-10T10:28:06.831Z,17.78
2023-04-10T10:29:05.920Z,17.78
2023-04-10T10:30:16.399Z,17.79
2023-04-10T10:31:07.025Z,17.79
2023-04-10T10:32:06.086Z,17.80
2023-04-10T10:33:06.066Z,17.81
2023-04-10T10:34:06.042Z,17.82
2023-04-10T10:35:06.066Z,17.82
2023-04-10T10:36:06.119Z,17.82
2023-04-10T10:37:06.146Z,17.83
2023-04-10T10:38:06.123Z,17.84
2023-04-10T10:39:06.140Z,17.86
2023-04-10T10:40:06.151Z,17.87
2023-04-10T10:41:06.160Z,17.87
2023-04-10T10:42:06.202Z,17.89
2023-04-10T10:43:06.258Z,17.90
2023-04-10T10:44:06.317Z,17.91
2023-04-10T10:45:06.376Z,17.91
2023-04-10T10:46:06.434Z,17.92
2023-04-10T10:47:06.469Z,17.93
2023-04-10T10:48:06.564Z,17.93
2023-04-10T10:49:06.575Z,17.94
2023-04-10T10:50:06.621Z,17.94
2023-04-10T10:51:06.676Z,17.95
2023-04-10T10:52:06.710Z,17.96
2023-04-10T10:53:06.775Z,17.96
2023-04-10T10:54:06.806Z,17.96
2023-04-10T10:55:06.860Z,17.97
2023-04-10T10:56:06.898Z,17.98
2023-04-10T10:57:06.940Z,17.99
2023-04-10T10:58:06.982Z,18.00
2023-04-10T10:59:07.018Z,18.01
2023-04-10T11:00:07.047Z,18.02
2023-04-10T11:01:09.842Z,18.03
2023-04-10T11:02:07.167Z,18.03
2023-04-10T11:03:07.206Z,18.04
2023-04-10T11:04:07.183Z,18.05
2023-04-10T11:05:07.173Z,18.06
2023-04-10T11:06:07.181Z,18.07
2023-04-10T11:07:07.160Z,18.08
2023-04-10T11:08:07.160Z,18.09
2023-04-10T11:09:07.176Z,18.10
2023-04-10T11:10:07.189Z,18.11
2023-04-10T11:11:07.217Z,18.12
2023-04-10T11:12:07.220Z,18.13
2023-04-10T11:13:07.215Z,18.13
2023-04-10T11:14:07.221Z,18.14
2023-04-10T11:15:07.234Z,18.14
2023-04-10T11:16:07.288Z,18.15
2023-04-10T11:17:07.282Z,18.15
2023-04-10T11:18:07.262Z,18.16
2023-04-10T11:19:14.916Z,18.16
2023-04-10T11:20:08.282Z,18.17
2023-04-10T11:21:07.284Z,18.19
2023-04-10T11:22:07.300Z,18.20
2023-04-10T11:23:07.295Z,18.21
2023-04-10T11:24:07.311Z,18.23
2023-04-10T11:25:07.304Z,18.24
2023-04-10T11:26:07.317Z,18.25
2023-04-10T11:27:07.325Z,18.27
2023-04-10T11:28:07.331Z,18.28
2023-04-10T11:29:07.363Z,18.29
2023-04-10T11:30:07.345Z,18.30
2023-04-10T11:31:07.360Z,18.31
2023-04-10T11:32:07.436Z,18.32
2023-04-10T11:33:07.508Z,18.34
2023-04-10T11:34:07.939Z,18.35
2023-04-10T11:35:07.406Z,18.36
2023-04-10T11:36:07.403Z,18.37
2023-04-10T11:37:07.423Z,18.39
2023-04-10T11:38:07.411Z,18.39
2023-04-10T11:39:07.428Z,18.41
2023-04-10T11:40:07.459Z,18.42
2023-04-10T11:41:07.448Z,18.43
2023-04-10T11:42:07.466Z,18.45
2023-04-10T11:43:07.445Z,18.47
2023-04-10T11:44:07.445Z,18.48
2023-04-10T11:45:07.434Z,18.50
2023-04-10T11:46:07.542Z,18.50
2023-04-10T11:47:07.450Z,18.52
2023-04-10T11:48:07.465Z,18.54
2023-04-10T11:49:07.463Z,18.55
2023-04-10T11:50:07.478Z,18.57
2023-04-10T11:51:07.543Z,18.57
2023-04-10T11:52:07.623Z,18.58
2023-04-10T11:53:07.682Z,18.60
2023-04-10T11:54:07.758Z,18.61
2023-04-10T11:55:07.821Z,18.62
2023-04-10T11:56:07.905Z,18.63
2023-04-10T11:57:07.958Z,18.65
2023-04-10T11:58:08.025Z,18.66
2023-04-10T11:59:08.091Z,18.69
2023-04-10T12:00:08.150Z,18.71
2023-04-10T12:01:08.214Z,18.71
2023-04-10T12:02:08.372Z,18.72
2023-04-10T12:03:08.483Z,18.73
2023-04-10T12:04:08.531Z,18.75
2023-04-10T12:05:08.488Z,18.76
2023-04-10T12:06:08.484Z,18.77
2023-04-10T12:07:08.549Z,18.79
2023-04-10T12:08:08.578Z,18.79
2023-04-10T12:09:09.367Z,18.82
2023-04-10T12:10:08.684Z,18.82
2023-04-10T12:11:08.729Z,18.84
2023-04-10T12:12:08.801Z,18.86
2023-04-10T12:13:08.805Z,18.87
2023-04-10T12:14:08.974Z,18.88
2023-04-10T12:15:08.978Z,18.89
2023-04-10T12:16:09.102Z,18.91
2023-04-10T12:17:09.027Z,18.92
2023-04-10T12:18:09.020Z,18.95
2023-04-10T12:19:09.065Z,18.95
2023-04-10T12:20:09.101Z,18.96
2023-04-10T12:21:09.131Z,18.98
2023-04-10T12:22:09.376Z,18.98
2023-04-10T12:23:09.241Z,19.00
2023-04-10T12:24:09.210Z,19.02
2023-04-10T12:25:09.321Z,19.03
2023-04-10T12:26:09.274Z,19.04
2023-04-10T12:27:09.392Z,19.06
2023-04-10T12:28:09.353Z,19.07
2023-04-10T12:29:09.378Z,19.07
2023-04-10T12:30:09.399Z,19.08
2023-04-10T12:31:09.470Z,19.09
2023-04-10T12:32:09.451Z,19.10
2023-04-10T12:33:09.471Z,19.11
2023-04-10T12:34:10.754Z,19.13
2023-04-10T12:35:09.522Z,19.15
2023-04-10T12:36:09.540Z,19.16
2023-04-10T12:37:09.559Z,19.17
2023-04-10T12:38:10.381Z,19.19
2023-04-10T12:39:09.612Z,19.22
2023-04-10T12:40:09.620Z,19.23
2023-04-10T12:41:09.637Z,19.24
2023-04-10T12:42:09.635Z,19.26
2023-04-10T12:43:09.666Z,19.28
2023-04-10T12:44:09.674Z,19.30
2023-04-10T12:45:09.730Z,19.32
2023-04-10T12:46:09.687Z,19.33
2023-04-10T12:47:09.676Z,19.35
2023-04-10T12:48:09.677Z,19.36
2023-04-10T12:49:09.655Z,19.38
2023-04-10T12:50:09.660Z,19.40
2023-04-10T12:51:09.657Z,19.43
2023-04-10T12:52:09.643Z,19.46
2023-04-10T12:53:09.642Z,19.46
2023-04-10T12:54:09.621Z,19.46
2023-04-10T12:55:09.628Z,19.48